createdAt,value
2023-03-15T00:00:11.958Z,4.60
2023-03-15T00:02:41.797Z,4.60
2023-03-15T00:05:13.611Z,4.70
2023-03-15T00:07:41.898Z,4.70
2023-03-15T00:10:11.195Z,4.60
2023-03-15T00:12:39.466Z,4.40
2023-03-15T00:15:08.778Z,4.60
2023-03-15T00:17:37.052Z,4.50
2023-03-15T00:20:08.084Z,4.50
2023-03-15T00:22:36.366Z,4.50
2023-03-15T00:25:04.914Z,4.50
2023-03-15T00:27:33.174Z,4.40
2023-03-15T00:30:01.627Z,4.50
2023-03-15T00:32:29.918Z,4.50
2023-03-15T00:34:58.308Z,4.50
2023-03-15T00:37:28.302Z,4.30
2023-03-15T00:39:56.975Z,4.40
2023-03-15T00:42:27.628Z,4.40
2023-03-15T00:44:56.515Z,4.50
2023-03-15T00:47:24.869Z,4.50
2023-03-15T00:49:53.236Z,4.50
2023-03-15T00:52:22.180Z,4.50
2023-03-15T00:54:54.433Z,4.40
2023-03-15T00:57:23.094Z,4.10
2023-03-15T00:59:53.235Z,4.20
2023-03-15T01:02:22.305Z,4.20
2023-03-15T01:04:51.368Z,4.20
2023-03-15T01:07:19.714Z,4.10
2023-03-15T01:09:48.700Z,4.10
2023-03-15T01:12:18.465Z,4.20
2023-03-15T01:14:46.725Z,4.20
2023-03-15T01:17:14.973Z,4.30
2023-03-15T01:19:43.231Z,4.20
2023-03-15T01:22:11.560Z,4.20
2023-03-15T01:24:40.117Z,4.00
2023-03-15T01:27:08.393Z,4.00
2023-03-15T01:29:38.028Z,4.00
2023-03-15T01:32:07.065Z,4.10
2023-03-15T01:34:35.488Z,4.10
2023-03-15T01:37:04.050Z,4.10
2023-03-15T01:39:32.312Z,4.10
2023-03-15T01:42:03.564Z,4.10
2023-03-15T01:44:52.060Z,4.10
2023-03-15T01:47:20.490Z,3.90
2023-03-15T01:49:49.933Z,3.80
2023-03-15T01:52:19.896Z,4.00
2023-03-15T01:54:49.900Z,3.90
2023-03-15T01:57:19.583Z,3.90
2023-03-15T01:59:49.264Z,3.90
2023-03-15T02:02:19.002Z,3.90
2023-03-15T02:04:48.831Z,3.70
2023-03-15T02:07:17.539Z,3.70
2023-03-15T02:09:53.377Z,3.70
2023-03-15T02:12:21.617Z,3.80
2023-03-15T02:14:50.108Z,3.80
2023-03-15T02:17:20.125Z,3.80
2023-03-15T02:19:51.219Z,3.80
2023-03-15T02:22:28.574Z,3.80
2023-03-15T02:24:59.948Z,3.90
2023-03-15T02:27:30.528Z,3.90
2023-03-15T02:29:58.820Z,3.90
2023-03-15T02:32:27.146Z,3.80
2023-03-15T02:34:55.405Z,3.90
2023-03-15T02:37:23.693Z,3.80
2023-03-15T02:39:51.943Z,3.90
2023-03-15T02:42:20.264Z,3.80
2023-03-15T02:44:50.027Z,3.70
2023-03-15T02:47:20.056Z,3.60
2023-03-15T02:49:50.503Z,3.70
2023-03-15T02:52:18.825Z,3.60
2023-03-15T02:54:47.101Z,3.60
2023-03-15T02:57:15.889Z,3.60
2023-03-15T02:59:44.228Z,3.60
2023-03-15T03:02:14.765Z,3.70
2023-03-15T03:04:43.089Z,3.70
2023-03-15T03:07:11.555Z,3.60
2023-03-15T03:09:39.850Z,3.70
2023-03-15T03:12:08.832Z,3.80
2023-03-15T03:14:37.119Z,3.80
2023-03-15T03:17:05.626Z,3.80
2023-03-15T03:19:35.315Z,3.80
2023-03-15T03:22:04.237Z,3.80
2023-03-15T03:24:32.539Z,3.80
2023-03-15T03:27:00.827Z,3.70
2023-03-15T03:29:29.121Z,3.80
2023-03-15T03:31:57.394Z,3.80
2023-03-15T03:34:25.628Z,3.60
2023-03-15T03:36:55.401Z,3.60
2023-03-15T03:39:23.662Z,3.70
2023-03-15T03:41:52.028Z,3.60
2023-03-15T03:44:20.478Z,3.60
2023-03-15T03:46:48.734Z,3.60
2023-03-15T03:49:16.977Z,3.60
2023-03-15T03:51:45.215Z,3.60
2023-03-15T03:54:17.444Z,3.60
2023-03-15T03:56:45.860Z,3.60
2023-03-15T03:59:14.130Z,3.60
2023-03-15T04:01:43.141Z,3.40
2023-03-15T04:04:14.314Z,3.50
2023-03-15T04:06:45.867Z,3.50
2023-03-15T04:09:16.087Z,3.60
2023-03-15T04:11:44.374Z,3.60
2023-03-15T04:14:12.765Z,3.50
2023-03-15T04:16:41.194Z,3.50
2023-03-15T04:19:09.471Z,3.50
2023-03-15T04:21:38.212Z,3.50
2023-03-15T04:24:07.572Z,3.40
2023-03-15T04:26:37.198Z,3.40
2023-03-15T04:29:05.877Z,3.40
2023-03-15T04:31:38.324Z,3.30
2023-03-15T04:34:06.737Z,3.30
2023-03-15T04:36:34.977Z,3.30
2023-03-15T04:39:05.640Z,3.20
2023-03-15T04:41:35.684Z,3.30
2023-03-15T04:44:05.726Z,3.30
2023-03-15T04:46:34.199Z,3.40
2023-03-15T04:49:05.056Z,3.40
2023-03-15T04:51:34.518Z,3.30
2023-03-15T04:54:03.389Z,3.40
2023-03-15T04:56:31.665Z,3.30
2023-03-15T04:59:00.049Z,3.20
2023-03-15T05:01:31.502Z,3.40
2023-03-15T05:03:59.863Z,3.40
2023-03-15T05:06:28.086Z,3.40
2023-03-15T05:08:56.413Z,3.30
2023-03-15T05:11:24.767Z,3.30
2023-03-15T05:13:53.499Z,3.30
2023-03-15T05:16:22.043Z,3.30
2023-03-15T05:18:51.817Z,3.30
2023-03-15T05:21:20.124Z,3.20
2023-03-15T05:23:48.471Z,3.20
2023-03-15T05:26:16.779Z,3.20
2023-03-15T05:28:45.923Z,3.10
2023-03-15T05:31:14.156Z,3.10
2023-03-15T05:33:47.175Z,3.20
2023-03-15T05:36:17.637Z,3.20
2023-03-15T05:38:45.986Z,3.20
2023-03-15T05:41:18.319Z,3.30
2023-03-15T05:43:46.742Z,3.20
2023-03-15T05:46:15.047Z,3.20
2023-03-15T05:48:43.342Z,3.10
2023-03-15T05:51:11.646Z,3.20
2023-03-15T05:53:41.253Z,3.10
2023-03-15T05:56:10.016Z,3.00
2023-03-15T05:58:38.295Z,3.00
2023-03-15T06:01:06.924Z,2.90
2023-03-15T06:03:35.274Z,2.90
2023-03-15T06:06:05.120Z,3.00
2023-03-15T06:08:33.425Z,3.10
2023-03-15T06:11:03.057Z,3.10
2023-03-15T06:13:31.406Z,3.20
2023-03-15T06:15:59.652Z,3.30
2023-03-15T06:18:28.029Z,3.00
2023-03-15T06:20:56.329Z,3.00
2023-03-15T06:23:24.573Z,3.20
2023-03-15T06:25:52.877Z,3.20
2023-03-15T06:28:22.570Z,3.10
2023-03-15T06:30:51.123Z,3.20
2023-03-15T06:33:19.407Z,3.00
2023-03-15T06:35:48.061Z,3.00
2023-03-15T06:38:16.398Z,3.20
2023-03-15T06:40:45.388Z,3.30
2023-03-15T06:43:18.389Z,3.30
2023-03-15T06:45:48.234Z,3.10
2023-03-15T06:48:17.530Z,3.10
2023-03-15T06:50:47.593Z,3.10
2023-03-15T06:53:16.210Z,3.30
2023-03-15T06:55:44.513Z,3.10
2023-03-15T06:58:12.784Z,3.20
2023-03-15T07:00:41.136Z,3.10
2023-03-15T07:03:10.979Z,3.20
2023-03-15T07:05:39.193Z,3.30
2023-03-15T07:08:07.729Z,3.40
2023-03-15T07:10:36.549Z,3.30
2023-03-15T07:13:06.966Z,3.40
2023-03-15T07:15:37.340Z,3.40
2023-03-15T07:18:05.758Z,3.50
2023-03-15T07:20:37.621Z,3.50
2023-03-15T07:23:06.308Z,3.40
2023-03-15T07:25:44.961Z,3.50
2023-03-15T07:28:20.607Z,3.40
2023-03-15T07:30:54.843Z,3.50
2023-03-15T07:33:24.264Z,3.60
2023-03-15T07:35:54.630Z,3.60
2023-03-15T07:38:23.164Z,3.60
2023-03-15T07:40:51.632Z,3.50
2023-03-15T07:43:20.114Z,3.50
2023-03-15T07:45:48.357Z,3.60
2023-03-15T07:48:16.821Z,3.60
2023-03-15T07:50:45.118Z,3.70
2023-03-15T07:53:14.809Z,3.80
2023-03-15T07:55:43.059Z,3.70
2023-03-15T07:58:11.525Z,3.80
2023-03-15T08:00:39.770Z,3.90
2023-03-15T08:03:08.042Z,3.80
2023-03-15T08:05:36.324Z,3.80
2023-03-15T08:08:04.776Z,3.60
2023-03-15T08:10:34.404Z,3.70
2023-03-15T08:13:02.762Z,3.70
2023-03-15T08:15:30.999Z,3.50
2023-03-15T08:17:59.935Z,3.30
2023-03-15T08:20:29.936Z,3.30
2023-03-15T08:22:58.528Z,3.40
2023-03-15T08:25:26.826Z,3.60
2023-03-15T08:27:56.458Z,3.60
2023-03-15T08:30:25.030Z,3.70
2023-03-15T08:32:53.685Z,3.80
2023-03-15T08:35:22.820Z,3.70
2023-03-15T08:37:52.515Z,3.60
2023-03-15T08:40:24.977Z,3.90
2023-03-15T08:42:54.541Z,3.50
2023-03-15T08:45:25.142Z,3.80
2023-03-15T08:47:56.982Z,4.00
2023-03-15T08:50:25.275Z,4.10
2023-03-15T08:52:53.521Z,4.20
2023-03-15T08:55:21.919Z,4.20
2023-03-15T08:57:50.144Z,4.30
2023-03-15T09:00:20.945Z,4.40
2023-03-15T09:02:52.128Z,4.20
2023-03-15T09:05:20.740Z,4.50
2023-03-15T09:07:49.335Z,4.30
2023-03-15T09:10:17.860Z,4.50
2023-03-15T09:12:46.731Z,4.70
2023-03-15T09:15:14.989Z,4.70
2023-03-15T09:17:43.328Z,4.70
2023-03-15T09:20:16.298Z,4.80
2023-03-15T09:22:44.568Z,4.80
2023-03-15T09:25:12.939Z,4.90
2023-03-15T09:27:41.173Z,4.80
2023-03-15T09:30:11.082Z,4.60
2023-03-15T09:32:39.521Z,4.30
2023-03-15T09:35:09.435Z,4.60
2023-03-15T09:37:39.121Z,4.60
2023-03-15T09:40:09.745Z,4.70
2023-03-15T09:42:42.997Z,4.60
2023-03-15T09:45:15.032Z,4.70
2023-03-15T09:47:46.779Z,4.60
2023-03-15T09:50:19.253Z,4.50
2023-03-15T09:52:49.988Z,4.70
2023-03-15T09:55:20.439Z,4.80
2023-03-15T09:57:49.885Z,4.90
2023-03-15T10:00:21.372Z,4.90
2023-03-15T10:02:54.439Z,4.90
2023-03-15T10:05:25.262Z,5.00
2023-03-15T10:07:54.934Z,4.80
2023-03-15T10:10:25.002Z,4.90
2023-03-15T10:12:57.113Z,5.00
2023-03-15T10:15:33.265Z,5.10
2023-03-15T10:18:16.364Z,5.20
2023-03-15T10:20:46.588Z,4.80
2023-03-15T10:23:18.130Z,5.00
2023-03-15T10:25:46.570Z,4.90
2023-03-15T10:28:17.048Z,5.10
2023-03-15T10:30:48.267Z,5.00
2023-03-15T10:33:18.367Z,5.10
2023-03-15T10:35:46.639Z,5.20
2023-03-15T10:38:17.589Z,5.20
2023-03-15T10:40:46.863Z,5.00
2023-03-15T10:43:21.253Z,5.20
2023-03-15T10:45:59.796Z,5.10
2023-03-15T10:48:28.451Z,5.20
2023-03-15T10:50:58.992Z,5.20
2023-03-15T10:53:28.842Z,5.40
2023-03-15T10:56:00.585Z,5.30
2023-03-15T10:58:31.487Z,5.50
2023-03-15T11:01:03.926Z,5.50
2023-03-15T11:03:32.343Z,5.40
2023-03-15T11:06:00.788Z,5.50
2023-03-15T11:08:39.377Z,5.50
2023-03-15T11:11:07.963Z,5.50
2023-03-15T11:13:36.359Z,5.60
2023-03-15T11:16:05.915Z,5.70
2023-03-15T11:18:36.856Z,5.60
2023-03-15T11:21:06.951Z,5.50
2023-03-15T11:23:36.809Z,5.70
2023-03-15T11:26:07.502Z,5.70
2023-03-15T11:28:37.526Z,5.70
2023-03-15T11:31:05.768Z,5.60
2023-03-15T11:33:39.939Z,5.40
2023-03-15T11:36:12.437Z,5.50
2023-03-15T11:38:44.421Z,5.60
2023-03-15T11:41:25.476Z,5.70
2023-03-15T11:44:01.207Z,5.80
2023-03-15T11:46:31.138Z,5.70
2023-03-15T11:49:02.484Z,5.20
2023-03-15T11:51:34.723Z,5.30
2023-03-15T11:54:07.578Z,5.20
2023-03-15T11:56:51.761Z,5.20
2023-03-15T11:59:21.345Z,5.40
2023-03-15T12:01:50.324Z,5.60
2023-03-15T12:04:45.729Z,5.70
2023-03-15T12:07:37.288Z,5.90
2023-03-15T12:10:35.980Z,5.60
2023-03-15T12:13:20.764Z,5.60
2023-03-15T12:15:49.554Z,5.40
2023-03-15T12:18:22.596Z,5.50
2023-03-15T12:20:53.254Z,5.70
2023-03-15T12:23:29.835Z,5.70
2023-03-15T12:25:58.721Z,5.60
2023-03-15T12:28:29.880Z,5.60
2023-03-15T12:30:59.627Z,5.50
2023-03-15T12:33:29.201Z,5.70
2023-03-15T12:36:01.208Z,5.70
2023-03-15T12:38:33.788Z,5.60
2023-03-15T12:41:02.148Z,5.60
2023-03-15T12:43:43.139Z,5.60
2023-03-15T12:46:44.854Z,5.50
2023-03-15T12:49:13.406Z,5.40
2023-03-15T12:51:45.563Z,5.50
2023-03-15T12:54:14.317Z,5.40
2023-03-15T12:56:47.667Z,5.50
2023-03-15T12:59:34.307Z,5.40
2023-03-15T13:02:03.633Z,5.50
2023-03-15T13:04:31.953Z,5.70
2023-03-15T13:07:07.511Z,5.60
2023-03-15T13:10:02.686Z,5.60
2023-03-15T13:12:32.176Z,5.50
2023-03-15T13:15:03.708Z,5.60
2023-03-15T13:17:36.924Z,5.50
2023-03-15T13:20:27.322Z,5.40
2023-03-15T13:22:59.129Z,5.40
2023-03-15T13:25:29.674Z,5.60
2023-03-15T13:28:00.412Z,5.70
2023-03-15T13:30:40.673Z,5.80
2023-03-15T13:33:24.598Z,5.90
2023-03-15T13:35:57.257Z,5.90
2023-03-15T13:38:30.971Z,5.80
2023-03-15T13:41:00.225Z,5.50
2023-03-15T13:43:30.151Z,5.80
2023-03-15T13:46:00.388Z,5.70
2023-03-15T13:48:29.585Z,5.80
2023-03-15T13:51:00.665Z,5.80
2023-03-15T13:53:48.703Z,6.00
2023-03-15T13:56:19.108Z,6.00
2023-03-15T13:58:47.349Z,5.60
2023-03-15T14:01:17.071Z,5.80
2023-03-15T14:03:45.716Z,6.00
2023-03-15T14:06:14.723Z,5.90
2023-03-15T14:08:42.952Z,5.90
2023-03-15T14:11:32.818Z,5.80
2023-03-15T14:14:02.697Z,5.70
2023-03-15T14:16:34.614Z,5.80
2023-03-15T14:19:19.304Z,5.70
2023-03-15T14:21:49.078Z,5.70
2023-03-15T14:24:18.528Z,5.80
2023-03-15T14:26:51.504Z,5.80
2023-03-15T14:29:22.102Z,5.80
2023-03-15T14:31:52.017Z,5.80
2023-03-15T14:34:25.194Z,5.90
2023-03-15T14:36:55.670Z,6.00
2023-03-15T14:39:26.666Z,6.00
2023-03-15T14:41:54.925Z,6.00
2023-03-15T14:44:23.206Z,5.90
2023-03-15T14:46:52.878Z,5.90
2023-03-15T14:49:23.715Z,5.90
2023-03-15T14:51:54.555Z,5.80
2023-03-15T14:54:22.858Z,5.90
2023-03-15T14:56:51.118Z,5.90
2023-03-15T14:59:19.370Z,5.90
2023-03-15T15:01:51.939Z,5.90
2023-03-15T15:04:21.660Z,5.80
2023-03-15T15:06:52.791Z,5.80
2023-03-15T15:09:23.201Z,5.80
2023-03-15T15:11:51.842Z,5.80
2023-03-15T15:14:20.220Z,5.80
2023-03-15T15:16:48.587Z,5.80
2023-03-15T15:19:16.877Z,5.90
2023-03-15T15:21:46.603Z,5.90
2023-03-15T15:24:16.022Z,5.80
2023-03-15T15:26:44.440Z,5.80
2023-03-15T15:29:14.969Z,5.70
2023-03-15T15:31:43.677Z,5.70
2023-03-15T15:34:12.360Z,5.70
2023-03-15T15:36:41.417Z,5.70
2023-03-15T15:39:17.493Z,5.70
2023-03-15T15:41:45.782Z,5.60
2023-03-15T15:44:16.549Z,5.60
2023-03-15T15:46:44.796Z,5.70
2023-03-15T15:49:13.078Z,5.80
2023-03-15T15:51:42.892Z,5.80
2023-03-15T15:54:14.854Z,5.70
2023-03-15T15:56:46.655Z,5.70
2023-03-15T15:59:15.623Z,5.70
2023-03-15T16:01:58.981Z,5.50
2023-03-15T16:04:28.459Z,5.60
2023-03-15T16:06:58.668Z,5.60
2023-03-15T16:09:30.158Z,5.50
2023-03-15T16:11:58.587Z,5.60
2023-03-15T16:14:27.111Z,5.40
2023-03-15T16:16:55.818Z,5.40
2023-03-15T16:19:24.238Z,5.40
2023-03-15T16:21:52.487Z,5.40
2023-03-15T16:24:21.610Z,5.40
2023-03-15T16:26:51.270Z,5.40
2023-03-15T16:29:21.198Z,5.40
2023-03-15T16:31:49.557Z,5.40
2023-03-15T16:34:18.763Z,5.40
2023-03-15T16:36:49.331Z,5.40
2023-03-15T16:39:18.133Z,5.40
2023-03-15T16:41:46.562Z,5.40
2023-03-15T16:44:17.287Z,5.40
2023-03-15T16:46:45.763Z,5.20
2023-03-15T16:49:15.522Z,5.30
2023-03-15T16:51:45.283Z,5.30
2023-03-15T16:54:24.225Z,5.20
2023-03-15T16:56:55.757Z,5.20
2023-03-15T16:59:25.530Z,5.20
2023-03-15T17:01:53.999Z,5.20
2023-03-15T17:04:22.816Z,5.20
2023-03-15T17:09:25.367Z,5.20
2023-03-15T17:11:53.762Z,5.10
2023-03-15T17:14:26.213Z,5.10
2023-03-15T17:16:54.724Z,5.10
2023-03-15T17:19:23.321Z,5.10
2023-03-15T17:21:52.050Z,5.10
2023-03-15T17:24:20.474Z,5.10
2023-03-15T17:26:49.105Z,5.10
2023-03-15T17:29:17.451Z,5.10
2023-03-15T17:31:47.578Z,5.10
2023-03-15T17:34:16.431Z,5.00
2023-03-15T17:36:44.998Z,5.10
2023-03-15T17:39:15.737Z,5.00
2023-03-15T17:41:45.964Z,5.00
2023-03-15T17:44:14.445Z,4.90
2023-03-15T17:46:43.188Z,5.00
2023-03-15T17:49:15.115Z,5.00
2023-03-15T17:51:43.771Z,5.00
2023-03-15T17:54:14.413Z,5.00
2023-03-15T17:56:43.613Z,5.00
2023-03-15T17:59:13.336Z,5.00
2023-03-15T18:01:43.528Z,4.90
2023-03-15T18:04:14.013Z,4.80
2023-03-15T18:06:42.728Z,4.80
2023-03-15T18:09:16.377Z,4.80
2023-03-15T18:11:46.413Z,4.80
2023-03-15T18:14:15.680Z,4.80
2023-03-15T18:16:45.538Z,4.80
2023-03-15T18:19:15.642Z,4.80
2023-03-15T18:21:44.483Z,4.80
2023-03-15T18:24:13.640Z,4.70
2023-03-15T18:26:42.975Z,4.70
2023-03-15T18:29:11.657Z,4.70
2023-03-15T18:31:40.495Z,4.60
2023-03-15T18:34:09.484Z,4.50
2023-03-15T18:36:39.272Z,4.50
2023-03-15T18:39:07.776Z,4.50
2023-03-15T18:41:36.124Z,4.40
2023-03-15T18:44:04.448Z,4.30
2023-03-15T18:46:33.027Z,4.20
2023-03-15T18:49:01.474Z,4.10
2023-03-15T18:51:29.854Z,4.20
2023-03-15T18:54:00.014Z,4.10
2023-03-15T18:56:30.908Z,4.10
2023-03-15T18:58:59.192Z,4.10
2023-03-15T19:01:27.530Z,4.00
2023-03-15T19:03:56.257Z,4.00
2023-03-15T19:06:25.511Z,4.00
2023-03-15T19:08:54.878Z,4.00
2023-03-15T19:11:26.977Z,4.00
2023-03-15T19:13:55.300Z,4.00
2023-03-15T19:16:23.997Z,4.00
2023-03-15T19:18:52.856Z,4.00
2023-03-15T19:21:21.366Z,4.00
2023-03-15T19:23:49.992Z,4.10
2023-03-15T19:26:18.519Z,4.00
2023-03-15T19:28:48.498Z,4.00
2023-03-15T19:31:16.898Z,4.00
2023-03-15T19:33:45.313Z,4.00
2023-03-15T19:36:13.763Z,4.00
2023-03-15T19:38:42.109Z,3.90
2023-03-15T19:41:12.830Z,3.90
2023-03-15T19:43:43.458Z,3.80
2023-03-15T19:46:14.026Z,3.80
2023-03-15T19:48:42.911Z,3.80
2023-03-15T19:51:11.251Z,3.90
2023-03-15T19:53:39.639Z,3.90
2023-03-15T19:56:09.758Z,3.80
2023-03-15T19:58:38.181Z,3.80
2023-03-15T20:01:06.777Z,3.80
2023-03-15T20:03:36.884Z,3.80
2023-03-15T20:06:07.254Z,3.70
2023-03-15T20:08:35.642Z,3.70
2023-03-15T20:11:04.767Z,3.60
2023-03-15T20:13:33.670Z,3.70
2023-03-15T20:16:02.113Z,3.60
2023-03-15T20:18:31.753Z,2.90
2023-03-15T20:21:01.578Z,3.60
2023-03-15T20:23:29.979Z,3.50
2023-03-15T20:26:06.112Z,3.50
2023-03-15T20:28:34.437Z,3.40
2023-03-15T20:31:06.902Z,3.40
2023-03-15T20:33:35.299Z,3.30
2023-03-15T20:36:05.429Z,3.30
2023-03-15T20:38:34.737Z,3.30
2023-03-15T20:41:03.060Z,3.20
2023-03-15T20:43:31.423Z,3.10
2023-03-15T20:46:00.457Z,3.10
2023-03-15T20:48:29.102Z,3.20
2023-03-15T20:50:58.172Z,3.10
2023-03-15T20:53:28.172Z,3.10
2023-03-15T20:55:56.703Z,3.00
2023-03-15T20:58:25.108Z,2.90
2023-03-15T21:00:54.363Z,3.00
2023-03-15T21:03:22.779Z,3.00
2023-03-15T21:05:51.185Z,3.00
2023-03-15T21:08:19.464Z,3.00
2023-03-15T21:10:49.261Z,3.00
2023-03-15T21:13:17.797Z,2.90
2023-03-15T21:15:46.996Z,2.90
2023-03-15T21:18:15.459Z,2.90
2023-03-15T21:20:43.926Z,2.90
2023-03-15T21:23:12.317Z,2.90
2023-03-15T21:25:41.219Z,2.80
2023-03-15T21:28:10.899Z,2.80
2023-03-15T21:30:40.365Z,2.80
2023-03-15T21:33:08.724Z,2.70
2023-03-15T21:35:37.044Z,2.80
2023-03-15T21:38:05.349Z,2.70
2023-03-15T21:40:33.698Z,2.70
2023-03-15T21:43:02.077Z,2.70
2023-03-15T21:45:32.166Z,2.70
2023-03-15T21:48:03.146Z,2.70
2023-03-15T21:50:31.465Z,2.60
2023-03-15T21:52:59.743Z,2.60
2023-03-15T21:55:28.027Z,2.60
2023-03-15T21:57:56.315Z,2.60
2023-03-15T22:00:24.912Z,2.60
2023-03-15T22:02:55.910Z,2.60
2023-03-15T22:05:24.569Z,2.60
2023-03-15T22:07:53.275Z,2.50
2023-03-15T22:10:22.926Z,2.50
2023-03-15T22:12:54.020Z,2.40
2023-03-15T22:17:51.590Z,2.40
2023-03-15T22:20:21.660Z,2.40
2023-03-15T22:22:50.169Z,2.30
2023-03-15T22:25:18.635Z,2.30
2023-03-15T22:27:47.219Z,2.20
2023-03-15T22:30:15.930Z,2.30
2023-03-15T22:32:44.551Z,2.20
2023-03-15T22:35:12.967Z,2.10
2023-03-15T22:37:42.684Z,2.00
2023-03-15T22:40:14.225Z,2.00
2023-03-15T22:42:42.663Z,2.00
2023-03-15T22:45:11.602Z,2.00
2023-03-15T22:47:39.867Z,1.90
2023-03-15T22:50:08.615Z,1.90
2023-03-15T22:52:36.975Z,2.00
2023-03-15T22:55:08.176Z,2.00
2023-03-15T22:57:36.465Z,1.90
2023-03-15T23:00:07.368Z,2.00
2023-03-15T23:02:36.298Z,2.00
2023-03-15T23:05:04.911Z,2.00
2023-03-15T23:07:33.517Z,2.00
2023-03-15T23:10:01.739Z,2.00
2023-03-15T23:12:36.288Z,2.00
2023-03-15T23:15:05.321Z,2.00
2023-03-15T23:17:33.641Z,2.00
2023-03-15T23:20:01.892Z,2.00
2023-03-15T23:22:30.946Z,2.00
2023-03-15T23:24:59.237Z,2.00
2023-03-15T23:27:27.514Z,2.00
2023-03-15T23:29:57.164Z,2.00
2023-03-15T23:32:26.282Z,1.90
2023-03-15T23:34:54.864Z,1.90
2023-03-15T23:37:23.573Z,1.90
2023-03-15T23:39:52.956Z,1.90
2023-03-15T23:42:25.822Z,1.80
2023-03-15T23:44:54.699Z,1.70
2023-03-15T23:47:24.636Z,1.70
2023-03-15T23:49:53.201Z,1.70
2023-03-15T23:52:25.413Z,1.60
2023-03-15T23:54:54.144Z,1.60
2023-03-15T23:57:22.446Z,1.60
2023-03-15T23:59:51.071Z,1.60
